createdAt,value
2023-03-07T00:02:23.246Z,21.33
2023-03-07T00:04:52.772Z,20.93
2023-03-07T00:07:20.819Z,22.77
2023-03-07T00:09:49.099Z,23.87
2023-03-07T00:12:17.171Z,25.80
2023-03-07T00:14:45.222Z,26.37
2023-03-07T00:17:13.249Z,26.93
2023-03-07T00:19:43.272Z,26.90
2023-03-07T00:22:14.599Z,27.83
2023-03-07T00:24:42.927Z,27.07
2023-03-07T00:27:11.002Z,28.10
2023-03-07T00:29:39.092Z,30.73
2023-03-07T00:32:07.575Z,30.67
2023-03-07T00:34:35.786Z,31.23
2023-03-07T00:37:03.844Z,30.50
2023-03-07T00:42:01.458Z,31.93
2023-03-07T00:44:30.424Z,32.00
2023-03-07T00:46:58.436Z,31.67
2023-03-07T00:49:27.343Z,32.30
2023-03-07T00:51:55.590Z,33.47
2023-03-07T00:54:23.796Z,31.13
2023-03-07T00:56:53.260Z,33.97
2023-03-07T00:59:21.396Z,33.73
2023-03-07T01:01:49.829Z,32.60
2023-03-07T01:04:17.968Z,33.30
2023-03-07T01:06:46.022Z,33.53
2023-03-07T01:09:14.066Z,33.50
2023-03-07T01:11:42.146Z,31.50
2023-03-07T01:14:12.595Z,31.67
2023-03-07T01:16:40.900Z,31.23
2023-03-07T01:19:12.624Z,30.30
2023-03-07T01:21:42.592Z,30.40
2023-03-07T01:24:13.791Z,33.27
2023-03-07T01:26:42.782Z,30.13
2023-03-07T01:29:13.136Z,30.33
2023-03-07T01:31:41.273Z,31.87
2023-03-07T01:34:09.680Z,30.40
2023-03-07T01:36:38.814Z,29.20
2023-03-07T01:39:13.077Z,30.03
2023-03-07T01:41:46.662Z,29.67
2023-03-07T01:44:19.596Z,29.00
2023-03-07T01:46:52.743Z,28.77
2023-03-07T01:49:29.574Z,28.00
2023-03-07T01:52:06.432Z,28.93
2023-03-07T01:54:40.316Z,26.80
2023-03-07T01:57:09.030Z,25.40
2023-03-07T01:59:42.717Z,27.20
2023-03-07T02:02:12.924Z,25.70
2023-03-07T02:04:45.351Z,26.13
2023-03-07T02:07:14.467Z,24.10
2023-03-07T02:09:44.380Z,24.40
2023-03-07T02:12:12.712Z,25.60
2023-03-07T02:14:45.003Z,24.40
2023-03-07T02:17:13.510Z,25.63
2023-03-07T02:19:54.401Z,25.73
2023-03-07T02:22:22.641Z,23.70
2023-03-07T02:24:54.724Z,25.87
2023-03-07T02:27:26.740Z,25.03
2023-03-07T02:29:54.807Z,25.37
2023-03-07T02:32:22.865Z,25.57
2023-03-07T02:34:50.969Z,25.80
2023-03-07T02:37:26.401Z,24.33
2023-03-07T02:39:56.134Z,25.17
2023-03-07T02:42:29.544Z,23.37
2023-03-07T02:45:11.594Z,22.90
2023-03-07T02:47:42.508Z,22.40
2023-03-07T02:50:13.189Z,21.87
2023-03-07T02:52:44.100Z,21.70
2023-03-07T02:55:12.904Z,21.40
2023-03-07T02:57:48.507Z,19.67
2023-03-07T03:00:17.403Z,21.40
2023-03-07T03:02:45.773Z,19.63
2023-03-07T03:05:14.145Z,18.77
2023-03-07T03:07:42.170Z,18.60
2023-03-07T03:10:11.208Z,17.93
2023-03-07T03:12:39.496Z,17.50
2023-03-07T03:15:11.373Z,15.73
2023-03-07T03:17:39.435Z,15.37
2023-03-07T03:20:12.229Z,16.13
2023-03-07T03:22:40.445Z,15.53
2023-03-07T03:25:11.566Z,14.67
2023-03-07T03:27:41.481Z,13.93
2023-03-07T03:30:13.990Z,14.20
2023-03-07T03:32:43.712Z,13.47
2023-03-07T03:35:14.469Z,12.77
2023-03-07T03:37:43.104Z,11.77
2023-03-07T03:40:17.223Z,12.20
2023-03-07T03:42:46.403Z,10.90
2023-03-07T03:45:18.367Z,9.47
2023-03-07T03:47:48.413Z,10.40
2023-03-07T03:50:16.767Z,9.80
2023-03-07T03:52:45.325Z,9.93
2023-03-07T03:55:13.926Z,9.67
2023-03-07T03:57:42.164Z,8.97
2023-03-07T04:00:14.306Z,8.03
2023-03-07T04:02:44.097Z,8.43
2023-03-07T04:05:16.996Z,9.13
2023-03-07T04:07:45.460Z,6.47
2023-03-07T04:10:13.591Z,7.50
2023-03-07T04:12:41.630Z,7.53
2023-03-07T04:15:10.434Z,7.10
2023-03-07T04:17:39.620Z,6.90
2023-03-07T04:20:14.664Z,5.60
2023-03-07T04:22:42.759Z,5.53
2023-03-07T04:25:12.364Z,5.93
2023-03-07T04:27:40.445Z,5.83
2023-03-07T04:30:10.379Z,5.00
2023-03-07T04:32:39.402Z,6.13
2023-03-07T04:35:09.981Z,5.30
2023-03-07T04:37:38.001Z,4.90
2023-03-07T04:40:06.902Z,4.97
2023-03-07T04:42:36.081Z,4.10
2023-03-07T04:45:04.984Z,3.83
2023-03-07T04:47:33.212Z,3.50
2023-03-07T04:50:01.325Z,3.50
2023-03-07T04:52:32.106Z,3.57
2023-03-07T04:55:00.158Z,3.23
2023-03-07T04:57:28.745Z,2.80
2023-03-07T04:59:56.917Z,2.93
2023-03-07T05:02:25.151Z,2.70
2023-03-07T05:04:53.732Z,2.23
2023-03-07T05:07:22.691Z,2.10
2023-03-07T05:09:53.461Z,2.30
2023-03-07T05:12:21.719Z,2.20
2023-03-07T05:14:50.145Z,2.10
2023-03-07T05:17:19.805Z,2.00
2023-03-07T05:19:48.143Z,2.03
2023-03-07T05:22:16.246Z,1.60
2023-03-07T05:24:45.160Z,1.67
2023-03-07T05:27:14.683Z,2.10
2023-03-07T05:29:42.739Z,1.60
2023-03-07T05:32:11.237Z,1.70
2023-03-07T05:34:40.181Z,1.43
2023-03-07T05:37:08.360Z,1.63
2023-03-07T05:39:36.621Z,1.50
2023-03-07T05:42:05.422Z,1.73
2023-03-07T05:44:35.448Z,1.43
2023-03-07T05:47:05.260Z,1.70
2023-03-07T05:49:34.368Z,1.07
2023-03-07T05:52:02.794Z,1.10
2023-03-07T05:54:30.825Z,1.40
2023-03-07T05:56:58.954Z,1.60
2023-03-07T05:59:27.107Z,1.50
2023-03-07T06:01:56.668Z,1.10
2023-03-07T06:04:25.161Z,1.70
2023-03-07T06:06:53.190Z,1.40
2023-03-07T06:09:22.347Z,0.93
2023-03-07T06:11:51.165Z,1.30
2023-03-07T06:14:19.290Z,1.30
2023-03-07T06:16:47.450Z,1.47
2023-03-07T06:19:17.676Z,1.17
2023-03-07T06:21:45.865Z,1.17
2023-03-07T06:24:14.041Z,1.30
2023-03-07T06:26:42.210Z,1.37
2023-03-07T06:29:10.416Z,1.63
2023-03-07T06:31:38.972Z,1.83
2023-03-07T06:34:08.501Z,1.40
2023-03-07T06:36:38.048Z,0.80
2023-03-07T06:39:06.103Z,1.47
2023-03-07T06:41:35.639Z,1.00
2023-03-07T06:44:05.089Z,1.50
2023-03-07T06:46:34.551Z,1.13
2023-03-07T06:49:07.833Z,0.93
2023-03-07T06:51:38.161Z,1.10
2023-03-07T06:54:07.340Z,1.10
2023-03-07T06:56:35.913Z,1.10
2023-03-07T06:59:04.274Z,1.30
2023-03-07T07:01:32.575Z,1.40
2023-03-07T07:04:01.573Z,0.97
2023-03-07T07:06:30.925Z,1.30
2023-03-07T07:09:00.749Z,0.90
2023-03-07T07:11:33.779Z,1.47
2023-03-07T07:14:02.849Z,1.20
2023-03-07T07:16:33.710Z,1.50
2023-03-07T07:19:02.115Z,1.10
2023-03-07T07:21:30.297Z,1.43
2023-03-07T07:23:59.893Z,1.57
2023-03-07T07:26:28.724Z,1.50
2023-03-07T07:28:58.674Z,1.50
2023-03-07T07:31:26.968Z,1.83
2023-03-07T07:33:55.368Z,1.70
2023-03-07T07:36:27.045Z,1.60
2023-03-07T07:38:55.424Z,1.37
2023-03-07T07:41:24.854Z,1.60
2023-03-07T07:43:55.729Z,1.97
2023-03-07T07:46:32.746Z,1.20
2023-03-07T07:49:00.818Z,1.30
2023-03-07T07:51:29.524Z,1.50
2023-03-07T07:53:57.820Z,2.10
2023-03-07T07:56:27.335Z,1.77
2023-03-07T07:58:55.408Z,1.43
2023-03-07T08:01:25.669Z,1.37
2023-03-07T08:03:53.742Z,1.20
2023-03-07T08:06:23.821Z,1.83
2023-03-07T08:08:52.104Z,1.77
2023-03-07T08:11:21.233Z,1.50
2023-03-07T08:13:50.864Z,1.60
2023-03-07T08:16:20.340Z,1.90
2023-03-07T08:18:50.998Z,1.70
2023-03-07T08:21:19.043Z,1.50
2023-03-07T08:23:47.209Z,1.27
2023-03-07T08:26:15.268Z,1.40
2023-03-07T08:28:43.739Z,2.13
2023-03-07T08:31:15.004Z,2.00
2023-03-07T08:33:43.611Z,2.13
2023-03-07T08:36:11.705Z,1.73
2023-03-07T08:38:40.285Z,2.57
2023-03-07T08:41:10.596Z,1.67
2023-03-07T08:43:39.362Z,2.13
2023-03-07T08:46:07.913Z,1.90
2023-03-07T08:48:37.336Z,2.37
2023-03-07T08:51:07.391Z,1.67
2023-03-07T08:53:35.679Z,1.30
2023-03-07T08:56:07.568Z,1.70
2023-03-07T08:58:35.789Z,1.63
2023-03-07T09:01:05.023Z,1.80
2023-03-07T09:03:33.534Z,1.93
2023-03-07T09:06:03.109Z,1.43
2023-03-07T09:08:31.210Z,1.70
2023-03-07T09:11:00.990Z,1.53
2023-03-07T09:13:29.054Z,1.77
2023-03-07T09:15:57.100Z,1.47
2023-03-07T09:18:25.213Z,2.10
2023-03-07T09:20:53.240Z,2.17
2023-03-07T09:23:22.603Z,1.57
2023-03-07T09:25:50.613Z,1.90
2023-03-07T09:28:18.754Z,1.83
2023-03-07T09:30:46.913Z,2.03
2023-03-07T09:33:14.913Z,2.03
2023-03-07T09:35:43.107Z,1.77
2023-03-07T09:38:11.422Z,1.87
2023-03-07T09:40:41.069Z,1.70
2023-03-07T09:43:17.923Z,1.87
2023-03-07T09:46:05.244Z,1.67
2023-03-07T09:49:04.515Z,1.87
2023-03-07T09:51:38.948Z,1.80
2023-03-07T09:54:13.661Z,2.57
2023-03-07T09:56:47.452Z,1.60
2023-03-07T09:59:23.677Z,2.10
2023-03-07T10:02:04.825Z,1.47
2023-03-07T10:04:39.942Z,1.10
2023-03-07T10:07:10.794Z,1.03
2023-03-07T10:09:40.269Z,0.90
2023-03-07T10:12:26.537Z,1.10
2023-03-07T10:15:06.179Z,1.00
2023-03-07T10:18:06.804Z,1.20
2023-03-07T10:20:45.187Z,1.10
2023-03-07T10:23:37.294Z,1.10
2023-03-07T10:26:11.349Z,1.30
2023-03-07T10:28:43.165Z,1.20
2023-03-07T10:31:21.777Z,1.43
2023-03-07T10:33:51.459Z,1.47
2023-03-07T10:36:21.618Z,1.13
2023-03-07T10:38:58.572Z,1.30
2023-03-07T10:41:27.107Z,1.50
2023-03-07T10:43:57.638Z,1.10
2023-03-07T10:46:28.480Z,1.57
2023-03-07T10:49:03.256Z,1.57
2023-03-07T10:51:42.427Z,1.60
2023-03-07T10:54:15.608Z,1.33
2023-03-07T10:57:05.587Z,1.40
2023-03-07T10:59:35.716Z,1.30
2023-03-07T11:02:06.286Z,2.17
2023-03-07T11:04:45.615Z,1.30
2023-03-07T11:07:28.618Z,1.53
2023-03-07T11:09:58.241Z,1.50
2023-03-07T11:12:28.075Z,1.57
2023-03-07T11:14:59.111Z,1.30
2023-03-07T11:17:30.648Z,1.83
2023-03-07T11:19:59.311Z,1.83
2023-03-07T11:22:33.572Z,1.60
2023-03-07T11:25:05.358Z,1.83
2023-03-07T11:27:37.266Z,1.60
2023-03-07T11:30:27.624Z,1.83
2023-03-07T11:33:12.057Z,1.73
2023-03-07T11:35:59.897Z,1.80
2023-03-07T11:38:37.431Z,1.70
2023-03-07T11:41:11.629Z,1.07
2023-03-07T11:43:53.170Z,1.37
2023-03-07T11:46:34.527Z,1.30
2023-03-07T11:49:21.372Z,1.33
2023-03-07T11:52:00.700Z,1.13
2023-03-07T11:54:38.381Z,1.03
2023-03-07T11:57:19.984Z,1.47
2023-03-07T12:00:14.991Z,1.27
2023-03-07T12:02:56.925Z,1.30
2023-03-07T12:05:44.474Z,1.10
2023-03-07T12:08:41.773Z,1.20
2023-03-07T12:11:22.737Z,1.67
2023-03-07T12:13:59.735Z,1.13
2023-03-07T12:16:39.506Z,1.10
2023-03-07T12:19:25.034Z,1.53
2023-03-07T12:22:14.202Z,0.97
2023-03-07T12:24:51.785Z,1.70
2023-03-07T12:27:27.781Z,1.00
2023-03-07T12:30:01.286Z,0.83
2023-03-07T12:32:33.143Z,1.10
2023-03-07T12:35:08.065Z,0.90
2023-03-07T12:37:42.264Z,0.63
2023-03-07T12:40:19.683Z,1.10
2023-03-07T12:42:55.501Z,0.90
2023-03-07T12:45:27.582Z,0.90
2023-03-07T12:48:03.119Z,1.80
2023-03-07T12:50:39.272Z,1.10
2023-03-07T12:53:16.495Z,1.47
2023-03-07T12:55:47.594Z,0.90
2023-03-07T12:58:23.053Z,0.80
2023-03-07T13:00:56.042Z,1.00
2023-03-07T13:03:35.421Z,1.00
2023-03-07T13:06:05.267Z,1.40
2023-03-07T13:08:34.624Z,1.07
2023-03-07T13:11:03.361Z,0.87
2023-03-07T13:13:51.325Z,1.67
2023-03-07T13:16:46.080Z,0.60
2023-03-07T13:20:03.260Z,0.63
2023-03-07T13:23:01.830Z,1.00
2023-03-07T13:25:57.842Z,1.07
2023-03-07T13:28:46.723Z,0.83
2023-03-07T13:31:45.136Z,1.00
2023-03-07T13:34:51.394Z,1.10
2023-03-07T13:37:54.412Z,0.80
2023-03-07T13:40:49.653Z,1.13
2023-03-07T13:43:36.375Z,1.00
2023-03-07T13:46:06.936Z,0.50
2023-03-07T13:49:01.070Z,1.03
2023-03-07T13:51:30.115Z,0.97
2023-03-07T13:54:03.014Z,0.83
2023-03-07T13:56:37.367Z,0.90
2023-03-07T13:59:17.707Z,1.33
2023-03-07T14:01:53.660Z,0.93
2023-03-07T14:04:38.862Z,1.00
2023-03-07T14:07:16.307Z,0.90
2023-03-07T14:09:47.978Z,0.90
2023-03-07T14:12:30.093Z,0.60
2023-03-07T14:15:25.422Z,0.90
2023-03-07T14:18:11.975Z,1.00
2023-03-07T14:20:51.265Z,0.70
2023-03-07T14:23:36.792Z,0.90
2023-03-07T14:26:13.247Z,0.57
2023-03-07T14:28:52.205Z,0.73
2023-03-07T14:31:26.242Z,1.10
2023-03-07T14:33:55.086Z,0.70
2023-03-07T14:36:25.063Z,0.70
2023-03-07T14:38:56.894Z,0.93
2023-03-07T14:41:39.230Z,0.90
2023-03-07T14:44:25.785Z,0.97
2023-03-07T14:47:06.115Z,0.77
2023-03-07T14:49:41.046Z,1.07
2023-03-07T14:52:21.428Z,0.90
2023-03-07T14:54:56.907Z,0.70
2023-03-07T14:57:30.967Z,0.87
2023-03-07T15:00:29.341Z,1.03
2023-03-07T15:02:59.844Z,0.67
2023-03-07T15:05:29.751Z,0.73
2023-03-07T15:07:58.593Z,1.10
2023-03-07T15:10:30.917Z,1.07
2023-03-07T15:12:59.431Z,0.80
2023-03-07T15:15:33.633Z,0.70
2023-03-07T15:18:07.062Z,0.60
2023-03-07T15:20:35.505Z,0.77
2023-03-07T15:23:07.522Z,1.30
2023-03-07T15:25:38.721Z,0.70
2023-03-07T15:28:16.565Z,0.80
2023-03-07T15:30:48.731Z,0.80
2023-03-07T15:33:23.983Z,0.90
2023-03-07T15:36:21.303Z,0.87
2023-03-07T15:38:50.461Z,1.57
2023-03-07T15:41:33.817Z,0.80
2023-03-07T15:44:07.256Z,0.70
2023-03-07T15:46:39.603Z,0.87
2023-03-07T15:49:08.150Z,1.57
2023-03-07T15:51:38.333Z,0.80
2023-03-07T15:54:21.650Z,1.23
2023-03-07T15:56:56.111Z,0.80
2023-03-07T15:59:29.383Z,0.93
2023-03-07T16:01:59.121Z,0.80
2023-03-07T16:04:37.724Z,1.10
2023-03-07T16:07:07.726Z,0.70
2023-03-07T16:09:35.785Z,0.90
2023-03-07T16:12:03.897Z,0.67
2023-03-07T16:14:34.210Z,0.70
2023-03-07T16:17:18.064Z,1.10
2023-03-07T16:19:46.285Z,1.47
2023-03-07T16:22:15.984Z,0.90
2023-03-07T16:24:44.448Z,0.97
2023-03-07T16:27:16.495Z,1.20
2023-03-07T16:29:44.966Z,0.60
2023-03-07T16:32:16.653Z,0.70
2023-03-07T16:34:45.008Z,0.90
2023-03-07T16:37:13.267Z,0.90
2023-03-07T16:39:42.071Z,0.60
2023-03-07T16:42:19.699Z,1.17
2023-03-07T16:44:49.340Z,0.80
2023-03-07T16:47:19.508Z,0.60
2023-03-07T16:49:49.824Z,0.60
2023-03-07T16:52:18.176Z,0.70
2023-03-07T16:54:46.247Z,0.73
2023-03-07T16:57:16.424Z,0.67
2023-03-07T16:59:47.739Z,0.90
2023-03-07T17:02:19.485Z,0.60
2023-03-07T17:04:47.823Z,0.60
2023-03-07T17:07:18.119Z,1.00
2023-03-07T17:09:46.390Z,0.60
2023-03-07T17:12:18.882Z,1.40
2023-03-07T17:14:47.020Z,0.80
2023-03-07T17:17:20.534Z,0.93
2023-03-07T17:19:48.597Z,0.90
2023-03-07T17:22:18.763Z,1.20
2023-03-07T17:24:48.113Z,0.83
2023-03-07T17:27:16.173Z,0.77
2023-03-07T17:29:46.740Z,0.80
2023-03-07T17:32:14.982Z,0.80
2023-03-07T17:34:44.614Z,1.10
2023-03-07T17:37:13.088Z,0.90
2023-03-07T17:39:42.383Z,0.80
2023-03-07T17:42:10.975Z,0.80
2023-03-07T17:44:39.325Z,0.80
2023-03-07T17:47:07.817Z,0.80
2023-03-07T17:49:37.417Z,1.30
2023-03-07T17:52:08.233Z,0.70
2023-03-07T17:54:36.785Z,0.60
2023-03-07T17:57:07.958Z,1.10
2023-03-07T17:59:36.541Z,0.90
2023-03-07T18:02:06.412Z,0.80
2023-03-07T18:04:34.656Z,1.10
2023-03-07T18:07:02.908Z,1.10
2023-03-07T18:09:32.740Z,1.03
2023-03-07T18:12:00.850Z,1.07
2023-03-07T18:14:28.981Z,1.00
2023-03-07T18:16:57.201Z,1.00
2023-03-07T18:19:27.046Z,0.90
2023-03-07T18:21:55.962Z,0.93
2023-03-07T18:24:27.170Z,0.77
2023-03-07T18:26:59.038Z,0.90
2023-03-07T18:29:28.995Z,1.00
2023-03-07T18:31:57.326Z,1.10
2023-03-07T18:34:25.492Z,1.00
2023-03-07T18:36:54.318Z,1.27
2023-03-07T18:39:23.017Z,1.00
2023-03-07T18:41:51.492Z,0.97
2023-03-07T18:44:20.978Z,1.30
2023-03-07T18:46:49.367Z,0.87
2023-03-07T18:49:17.851Z,1.03
2023-03-07T18:51:48.265Z,1.10
2023-03-07T18:54:16.747Z,0.90
2023-03-07T18:56:46.984Z,0.80
2023-03-07T18:59:15.703Z,1.00
2023-03-07T19:01:46.033Z,1.20
2023-03-07T19:04:14.151Z,1.20
2023-03-07T19:06:45.083Z,1.10
2023-03-07T19:09:16.936Z,1.27
2023-03-07T19:11:45.408Z,1.00
2023-03-07T19:14:13.544Z,1.10
2023-03-07T19:16:41.970Z,1.47
2023-03-07T19:19:11.764Z,1.17
2023-03-07T19:21:39.970Z,1.07
2023-03-07T19:24:11.286Z,1.40
2023-03-07T19:26:40.900Z,1.00
2023-03-07T19:29:09.787Z,1.10
2023-03-07T19:31:38.002Z,1.20
2023-03-07T19:34:06.416Z,1.70
2023-03-07T19:36:37.313Z,1.10
2023-03-07T19:39:08.823Z,1.90
2023-03-07T19:41:37.635Z,1.10
2023-03-07T19:44:11.917Z,1.10
2023-03-07T19:46:42.968Z,1.20
2023-03-07T19:49:11.003Z,1.10
2023-03-07T19:51:40.411Z,1.13
2023-03-07T19:54:09.817Z,0.93
2023-03-07T19:56:38.458Z,0.93
2023-03-07T19:59:08.403Z,0.70
2023-03-07T20:01:36.622Z,0.83
2023-03-07T20:04:06.397Z,1.13
2023-03-07T20:06:35.310Z,0.70
2023-03-07T20:09:04.936Z,0.77
2023-03-07T20:11:34.702Z,1.20
2023-03-07T20:14:05.672Z,1.20
2023-03-07T20:16:35.073Z,1.00
2023-03-07T20:19:04.979Z,0.93
2023-03-07T20:21:34.699Z,1.10
2023-03-07T20:24:04.676Z,0.97
2023-03-07T20:26:35.402Z,1.30
2023-03-07T20:29:05.703Z,1.00
2023-03-07T20:31:33.984Z,1.07
2023-03-07T20:34:02.147Z,1.43
2023-03-07T20:36:31.956Z,1.37
2023-03-07T20:39:01.419Z,1.40
2023-03-07T20:41:32.415Z,1.50
2023-03-07T20:44:03.387Z,1.00
2023-03-07T20:46:31.922Z,1.53
2023-03-07T20:49:01.294Z,1.30
2023-03-07T20:51:30.942Z,1.37
2023-03-07T20:54:01.148Z,1.50
2023-03-07T20:56:32.141Z,1.40
2023-03-07T20:59:01.002Z,1.40
2023-03-07T21:01:32.666Z,1.40
2023-03-07T21:04:06.061Z,1.47
2023-03-07T21:06:34.820Z,1.20
2023-03-07T21:09:06.286Z,1.23
2023-03-07T21:11:36.972Z,1.20
2023-03-07T21:14:05.463Z,1.10
2023-03-07T21:16:33.786Z,1.40
2023-03-07T21:19:03.164Z,1.20
2023-03-07T21:21:33.026Z,1.10
2023-03-07T21:24:01.378Z,1.50
2023-03-07T21:26:31.119Z,1.37
2023-03-07T21:29:01.306Z,1.30
2023-03-07T21:31:31.010Z,1.30
2023-03-07T21:34:00.650Z,1.20
2023-03-07T21:36:31.250Z,1.50
2023-03-07T21:39:00.056Z,1.73
2023-03-07T21:41:28.592Z,1.67
2023-03-07T21:43:58.066Z,1.33
2023-03-07T21:46:27.877Z,1.40
2023-03-07T21:48:56.090Z,1.40
2023-03-07T21:51:24.234Z,1.40
2023-03-07T21:53:52.265Z,1.80
2023-03-07T21:56:21.194Z,2.07
2023-03-07T21:58:50.987Z,2.73
2023-03-07T22:01:20.956Z,3.07
2023-03-07T22:03:53.031Z,2.33
2023-03-07T22:06:21.518Z,1.67
2023-03-07T22:08:49.554Z,2.53
2023-03-07T22:11:17.646Z,1.10
2023-03-07T22:13:45.787Z,1.40
2023-03-07T22:16:16.113Z,1.50
2023-03-07T22:18:44.241Z,1.60
2023-03-07T22:21:15.030Z,1.90
2023-03-07T22:23:43.602Z,1.43
2023-03-07T22:26:12.812Z,1.20
2023-03-07T22:28:41.677Z,1.37
2023-03-07T22:31:13.342Z,1.60
2023-03-07T22:33:43.131Z,1.30
2023-03-07T22:36:14.817Z,1.37
2023-03-07T22:38:44.276Z,1.10
2023-03-07T22:41:14.843Z,1.47
2023-03-07T22:43:45.429Z,1.60
2023-03-07T22:46:14.347Z,1.40
2023-03-07T22:48:43.124Z,1.20
2023-03-07T22:51:16.530Z,1.60
2023-03-07T22:53:44.829Z,1.30
2023-03-07T22:56:16.467Z,1.60
2023-03-07T22:58:44.732Z,1.37
2023-03-07T23:01:14.241Z,1.33
2023-03-07T23:03:42.525Z,1.30
2023-03-07T23:06:10.699Z,1.20
2023-03-07T23:08:40.458Z,1.20
2023-03-07T23:11:10.055Z,1.40
2023-03-07T23:13:40.779Z,1.33
2023-03-07T23:16:11.732Z,1.30
2023-03-07T23:18:41.148Z,1.30
2023-03-07T23:21:11.577Z,1.37
2023-03-07T23:23:41.082Z,1.30
2023-03-07T23:26:09.265Z,1.10
2023-03-07T23:28:37.306Z,1.10
2023-03-07T23:31:05.481Z,1.20
2023-03-07T23:33:33.846Z,1.30
2023-03-07T23:36:01.906Z,1.13
2023-03-07T23:38:29.998Z,1.37
2023-03-07T23:41:00.846Z,1.43
2023-03-07T23:43:28.917Z,1.23
2023-03-07T23:45:56.968Z,1.20
2023-03-07T23:48:25.113Z,1.10
2023-03-07T23:50:53.168Z,1.30
2023-03-07T23:53:21.179Z,1.10
2023-03-07T23:55:49.280Z,1.23
2023-03-07T23:58:18.693Z,1.00
